createdAt,value
2018-08-09T00:00:09.856Z,6.70
2018-08-09T00:02:38.764Z,5.47
2018-08-09T00:05:07.714Z,6.83
2018-08-09T00:07:36.576Z,6.50
2018-08-09T00:10:06.068Z,7.23
2018-08-09T00:12:34.988Z,6.53
2018-08-09T00:15:04.470Z,5.60
2018-08-09T00:17:33.379Z,5.20
2018-08-09T00:20:02.311Z,6.17
2018-08-09T00:22:31.225Z,7.30
2018-08-09T00:25:00.068Z,7.30
2018-08-09T00:27:28.938Z,6.63
2018-08-09T00:29:57.815Z,6.70
2018-08-09T00:32:26.646Z,6.97
2018-08-09T00:34:55.455Z,5.97
2018-08-09T00:37:24.344Z,5.67
2018-08-09T00:39:53.179Z,5.40
2018-08-09T00:42:22.046Z,7.10
2018-08-09T00:44:50.935Z,5.60
2018-08-09T00:47:19.782Z,6.63
2018-08-09T00:49:48.623Z,6.20
2018-08-09T00:52:17.531Z,6.47
2018-08-09T00:54:46.376Z,5.17
2018-08-09T00:57:15.215Z,6.33
2018-08-09T00:59:44.081Z,5.97
2018-08-09T01:02:12.919Z,6.20
2018-08-09T01:04:41.754Z,5.43
2018-08-09T01:07:10.602Z,5.93
2018-08-09T01:09:39.425Z,5.70
2018-08-09T01:12:08.398Z,6.07
2018-08-09T01:14:37.226Z,6.57
2018-08-09T01:17:06.139Z,6.83
2018-08-09T01:19:35.090Z,7.50
2018-08-09T01:22:04.136Z,6.93
2018-08-09T01:24:33.002Z,6.80
2018-08-09T01:27:01.875Z,6.07
2018-08-09T01:29:30.763Z,6.87
2018-08-09T01:31:59.647Z,6.83
2018-08-09T01:34:28.503Z,6.97
2018-08-09T01:36:57.375Z,6.63
2018-08-09T01:39:26.207Z,6.90
2018-08-09T01:42:12.114Z,7.10
2018-08-09T01:44:40.958Z,7.97
2018-08-09T01:47:09.810Z,7.03
2018-08-09T01:49:38.664Z,7.97
2018-08-09T01:52:07.592Z,6.33
2018-08-09T01:54:36.495Z,6.60
2018-08-09T01:57:05.348Z,7.23
2018-08-09T01:59:34.237Z,7.23
2018-08-09T02:02:03.270Z,6.70
2018-08-09T02:04:32.137Z,8.10
2018-08-09T02:07:01.048Z,7.10
2018-08-09T02:09:31.713Z,7.63
2018-08-09T02:12:01.982Z,7.63
2018-08-09T02:14:30.923Z,7.13
2018-08-09T02:17:00.173Z,7.30
2018-08-09T02:19:29.268Z,6.77
2018-08-09T02:21:58.158Z,7.97
2018-08-09T02:24:27.035Z,6.93
2018-08-09T02:26:55.945Z,8.00
2018-08-09T02:29:24.791Z,6.30
2018-08-09T02:31:53.679Z,7.60
2018-08-09T02:34:22.547Z,11.33
2018-08-09T02:36:51.382Z,7.53
2018-08-09T02:39:20.239Z,8.00
2018-08-09T02:41:49.155Z,7.40
2018-08-09T02:44:18.012Z,7.37
2018-08-09T02:46:46.874Z,7.80
2018-08-09T02:49:15.707Z,8.43
2018-08-09T02:51:44.644Z,7.17
2018-08-09T02:54:13.529Z,8.60
2018-08-09T02:56:42.359Z,7.73
2018-08-09T02:59:11.219Z,8.10
2018-08-09T03:01:40.150Z,8.97
2018-08-09T03:04:09.032Z,8.07
2018-08-09T03:06:37.887Z,8.63
2018-08-09T03:09:10.602Z,7.37
2018-08-09T03:11:39.853Z,8.27
2018-08-09T03:14:08.721Z,8.93
2018-08-09T03:16:37.661Z,8.13
2018-08-09T03:19:06.700Z,7.30
2018-08-09T03:21:35.631Z,8.83
2018-08-09T03:24:04.594Z,8.93
2018-08-09T03:26:33.455Z,8.40
2018-08-09T03:29:02.318Z,8.70
2018-08-09T03:31:31.567Z,7.97
2018-08-09T03:34:00.395Z,9.57
2018-08-09T03:36:29.236Z,9.13
2018-08-09T03:38:58.260Z,8.10
2018-08-09T03:41:27.222Z,8.50
2018-08-09T03:43:56.157Z,8.50
2018-08-09T03:46:25.159Z,9.80
2018-08-09T03:48:54.120Z,8.50
2018-08-09T03:51:29.873Z,9.07
2018-08-09T03:53:58.743Z,9.80
2018-08-09T03:56:27.653Z,8.73
2018-08-09T03:58:56.495Z,9.43
2018-08-09T04:01:25.401Z,9.03
2018-08-09T04:03:54.293Z,9.10
2018-08-09T04:06:23.457Z,9.03
2018-08-09T04:08:52.342Z,7.80
2018-08-09T04:11:21.203Z,9.40
2018-08-09T04:13:50.050Z,9.80
2018-08-09T04:16:18.895Z,9.23
2018-08-09T04:18:48.415Z,8.80
2018-08-09T04:21:18.418Z,9.40
2018-08-09T04:23:47.742Z,9.03
2018-08-09T04:26:16.840Z,8.47
2018-08-09T04:28:45.976Z,9.97
2018-08-09T04:31:16.118Z,9.30
2018-08-09T04:33:45.901Z,10.00
2018-08-09T04:36:15.522Z,8.43
2018-08-09T04:38:45.243Z,10.03
2018-08-09T04:41:15.055Z,9.50
2018-08-09T04:43:44.528Z,9.03
2018-08-09T04:46:14.103Z,9.40
2018-08-09T04:48:43.204Z,9.73
2018-08-09T04:51:12.207Z,9.83
2018-08-09T04:53:42.130Z,9.40
2018-08-09T04:56:10.995Z,10.63
2018-08-09T04:58:39.859Z,10.00
2018-08-09T05:01:09.171Z,9.80
2018-08-09T05:03:38.182Z,9.63
2018-08-09T05:06:07.067Z,10.00
2018-08-09T05:08:35.959Z,11.20
2018-08-09T05:11:04.822Z,9.83
2018-08-09T05:13:33.731Z,10.40
2018-08-09T05:16:02.663Z,8.97
2018-08-09T05:18:31.716Z,10.20
2018-08-09T05:21:00.570Z,11.13
2018-08-09T05:23:30.531Z,11.77
2018-08-09T05:25:59.344Z,10.80
2018-08-09T05:28:28.931Z,12.10
2018-08-09T05:30:57.832Z,10.47
2018-08-09T05:33:26.979Z,10.80
2018-08-09T05:35:55.852Z,10.67
2018-08-09T05:38:24.703Z,11.50
2018-08-09T05:40:53.526Z,10.43
2018-08-09T05:43:22.433Z,15.27
2018-08-09T05:45:51.311Z,15.37
2018-08-09T05:48:20.354Z,14.73
2018-08-09T05:50:49.323Z,21.23
2018-08-09T05:53:18.276Z,16.03
2018-08-09T05:55:47.084Z,13.70
2018-08-09T05:58:15.906Z,14.70
2018-08-09T06:00:44.748Z,15.27
2018-08-09T06:03:13.724Z,14.00
2018-08-09T06:05:42.607Z,12.73
2018-08-09T06:08:11.449Z,12.50
2018-08-09T06:10:40.250Z,13.20
2018-08-09T06:13:09.110Z,13.37
2018-08-09T06:15:37.967Z,13.17
2018-08-09T06:18:07.206Z,13.40
2018-08-09T06:20:36.100Z,11.47
2018-08-09T06:23:05.175Z,13.67
2018-08-09T06:25:34.036Z,12.63
2018-08-09T06:28:03.023Z,13.17
2018-08-09T06:30:31.907Z,12.53
2018-08-09T06:33:00.879Z,12.80
2018-08-09T06:35:29.784Z,12.40
2018-08-09T06:37:58.663Z,13.83
2018-08-09T06:40:27.551Z,12.97
2018-08-09T06:42:56.439Z,12.57
2018-08-09T06:45:25.314Z,13.50
2018-08-09T06:47:54.139Z,14.77
2018-08-09T06:50:23.007Z,13.40
2018-08-09T06:52:52.004Z,12.80
2018-08-09T06:55:21.579Z,12.70
2018-08-09T06:57:50.687Z,12.83
2018-08-09T07:00:19.550Z,12.37
2018-08-09T07:02:48.463Z,13.17
2018-08-09T07:05:17.347Z,12.27
2018-08-09T07:07:46.660Z,12.47
2018-08-09T07:10:15.540Z,13.13
2018-08-09T07:12:44.977Z,13.20
2018-08-09T07:15:14.079Z,13.33
2018-08-09T07:17:43.197Z,14.37
2018-08-09T07:20:12.124Z,14.50
2018-08-09T07:22:41.438Z,14.43
2018-08-09T07:25:10.354Z,14.80
2018-08-09T07:27:39.203Z,12.63
2018-08-09T07:30:11.127Z,12.90
2018-08-09T07:32:40.234Z,14.43
2018-08-09T07:35:15.899Z,11.77
2018-08-09T07:37:44.788Z,13.37
2018-08-09T07:40:13.696Z,14.57
2018-08-09T07:42:43.030Z,14.30
2018-08-09T07:45:13.053Z,13.60
2018-08-09T07:47:42.223Z,14.90
2018-08-09T07:50:11.855Z,14.57
2018-08-09T07:52:41.116Z,13.80
2018-08-09T07:55:10.455Z,14.83
2018-08-09T07:57:40.202Z,13.97
2018-08-09T08:00:11.513Z,11.70
2018-08-09T08:02:40.872Z,15.20
2018-08-09T08:05:09.975Z,15.27
2018-08-09T08:07:39.320Z,13.60
2018-08-09T08:10:09.599Z,14.07
2018-08-09T08:12:39.321Z,14.17
2018-08-09T08:15:10.026Z,14.87
2018-08-09T08:17:39.390Z,14.47
2018-08-09T08:20:09.119Z,17.03
2018-08-09T08:22:38.497Z,15.47
2018-08-09T08:25:07.927Z,15.07
2018-08-09T08:27:36.950Z,16.00
2018-08-09T08:30:10.404Z,14.97
2018-08-09T08:32:40.939Z,15.23
2018-08-09T08:35:10.234Z,15.67
2018-08-09T08:37:40.297Z,15.07
2018-08-09T08:40:10.108Z,14.30
2018-08-09T08:42:39.140Z,14.13
2018-08-09T08:45:12.192Z,15.50
2018-08-09T08:47:42.171Z,14.80
2018-08-09T08:50:11.880Z,14.77
2018-08-09T08:52:41.116Z,13.40
2018-08-09T08:55:11.996Z,15.07
2018-08-09T08:57:40.926Z,16.57
2018-08-09T09:00:13.072Z,14.97
2018-08-09T09:02:43.539Z,14.37
2018-08-09T09:05:13.555Z,17.00
2018-08-09T09:07:42.929Z,15.50
2018-08-09T09:10:13.434Z,15.37
2018-08-09T09:12:43.405Z,15.30
2018-08-09T09:15:14.827Z,16.47
2018-08-09T09:17:44.551Z,14.23
2018-08-09T09:20:15.367Z,15.30
2018-08-09T09:22:45.116Z,14.83
2018-08-09T09:25:16.928Z,13.83
2018-08-09T09:27:46.458Z,15.63
2018-08-09T09:30:17.241Z,16.90
2018-08-09T09:32:46.719Z,16.40
2018-08-09T09:35:16.504Z,15.57
2018-08-09T09:37:46.224Z,15.97
2018-08-09T09:40:15.547Z,15.73
2018-08-09T09:42:44.913Z,15.30
2018-08-09T09:45:14.288Z,14.50
2018-08-09T09:47:43.996Z,15.23
2018-08-09T09:50:13.393Z,18.40
2018-08-09T09:52:44.016Z,17.40
2018-08-09T09:55:13.395Z,15.70
2018-08-09T09:57:42.792Z,14.37
2018-08-09T10:00:18.074Z,17.60
2018-08-09T10:02:47.228Z,17.17
2018-08-09T10:05:16.361Z,17.73
2018-08-09T10:07:45.551Z,14.20
2018-08-09T10:10:14.678Z,15.40
2018-08-09T10:12:44.105Z,17.00
2018-08-09T10:15:13.611Z,15.70
2018-08-09T10:17:42.855Z,16.37
2018-08-09T10:20:12.048Z,15.60
2018-08-09T10:22:41.367Z,15.20
2018-08-09T10:25:10.256Z,14.93
2018-08-09T10:27:39.590Z,15.10
2018-08-09T10:30:09.094Z,16.13
2018-08-09T10:32:38.343Z,18.13
2018-08-09T10:35:07.307Z,17.07
2018-08-09T10:37:36.187Z,17.87
2018-08-09T10:40:05.361Z,17.70
2018-08-09T10:42:34.318Z,17.07
2018-08-09T10:45:03.959Z,19.40
2018-08-09T10:47:32.944Z,18.67
2018-08-09T10:50:01.814Z,17.30
2018-08-09T10:52:30.713Z,18.30
2018-08-09T10:54:59.920Z,17.77
2018-08-09T10:57:28.820Z,19.30
2018-08-09T10:59:57.679Z,19.00
2018-08-09T11:02:26.629Z,20.93
2018-08-09T11:04:55.514Z,19.63
2018-08-09T11:07:24.385Z,18.90
2018-08-09T11:09:53.274Z,18.73
2018-08-09T11:12:22.139Z,20.27
2018-08-09T11:14:50.970Z,18.57
2018-08-09T11:17:19.845Z,18.63
2018-08-09T11:19:48.711Z,18.73
2018-08-09T11:22:17.592Z,19.70
2018-08-09T11:24:46.459Z,21.13
2018-08-09T11:27:15.339Z,20.23
2018-08-09T11:29:44.201Z,20.70
2018-08-09T11:32:13.818Z,19.43
2018-08-09T11:34:43.282Z,19.13
2018-08-09T11:37:12.260Z,20.37
2018-08-09T11:39:41.718Z,20.07
2018-08-09T11:42:10.947Z,19.57
2018-08-09T11:44:40.051Z,19.67
2018-08-09T11:47:09.222Z,21.20
2018-08-09T11:49:38.468Z,20.80
2018-08-09T11:52:07.489Z,21.60
2018-08-09T11:54:36.976Z,21.27
2018-08-09T11:57:06.508Z,20.70
2018-08-09T11:59:35.419Z,20.23
2018-08-09T12:02:04.483Z,21.30
2018-08-09T12:04:33.743Z,22.13
2018-08-09T12:07:02.672Z,22.77
2018-08-09T12:09:31.562Z,20.93
2018-08-09T12:12:00.423Z,21.57
2018-08-09T12:14:29.327Z,20.70
2018-08-09T12:16:58.273Z,22.33
2018-08-09T12:19:27.919Z,18.80
2018-08-09T12:21:57.033Z,20.87
2018-08-09T12:24:25.979Z,20.80
2018-08-09T12:26:54.986Z,20.90
2018-08-09T12:29:23.830Z,21.90
2018-08-09T12:31:53.308Z,21.40
2018-08-09T12:34:22.291Z,21.17
2018-08-09T12:36:51.178Z,20.73
2018-08-09T12:39:20.128Z,22.80
2018-08-09T12:41:49.240Z,21.50
2018-08-09T12:44:18.474Z,21.10
2018-08-09T12:46:48.984Z,21.57
2018-08-09T12:49:19.057Z,19.20
2018-08-09T12:51:48.701Z,20.83
2018-08-09T12:54:19.007Z,22.97
2018-08-09T12:56:49.497Z,22.40
2018-08-09T12:59:19.440Z,19.97
2018-08-09T13:01:49.116Z,19.70
2018-08-09T13:04:18.980Z,22.87
2018-08-09T13:06:48.556Z,20.73
2018-08-09T13:09:18.160Z,21.73
2018-08-09T13:11:48.270Z,20.20
2018-08-09T13:14:18.506Z,19.20
2018-08-09T13:16:47.705Z,22.00
2018-08-09T13:19:16.588Z,24.13
2018-08-09T13:21:45.576Z,20.77
2018-08-09T13:24:14.455Z,21.90
2018-08-09T13:26:43.365Z,21.43
2018-08-09T13:29:12.235Z,21.47
2018-08-09T13:31:41.886Z,22.70
2018-08-09T13:34:11.476Z,22.80
2018-08-09T13:36:40.439Z,22.97
2018-08-09T13:39:12.112Z,21.93
2018-08-09T13:41:42.207Z,23.60
2018-08-09T13:44:11.503Z,23.73
2018-08-09T13:46:40.474Z,24.30
2018-08-09T13:49:09.407Z,21.40
2018-08-09T13:51:38.388Z,23.33
2018-08-09T13:54:07.303Z,23.43
2018-08-09T13:56:36.162Z,22.83
2018-08-09T13:59:05.127Z,22.77
2018-08-09T14:01:34.614Z,22.70
2018-08-09T14:04:04.074Z,21.03
2018-08-09T14:06:33.808Z,22.77
2018-08-09T14:09:03.824Z,23.30
2018-08-09T14:11:32.905Z,23.43
2018-08-09T14:14:01.795Z,22.13
2018-08-09T14:16:30.739Z,22.10
2018-08-09T14:18:59.622Z,22.90
2018-08-09T14:21:28.806Z,21.47
2018-08-09T14:23:57.691Z,22.27
2018-08-09T14:26:26.668Z,22.70
2018-08-09T14:28:55.521Z,21.27
2018-08-09T14:31:24.478Z,19.60
2018-08-09T14:33:53.568Z,22.13
2018-08-09T14:36:22.836Z,23.00
2018-08-09T14:38:52.623Z,22.17
2018-08-09T14:41:22.294Z,23.30
2018-08-09T14:43:51.863Z,19.00
2018-08-09T14:46:21.661Z,19.73
2018-08-09T14:48:51.716Z,19.80
2018-08-09T14:51:21.217Z,20.70
2018-08-09T14:53:50.897Z,19.70
2018-08-09T14:56:19.791Z,21.90
2018-08-09T14:58:48.752Z,21.57
2018-08-09T15:01:17.771Z,20.63
2018-08-09T15:03:46.815Z,18.57
2018-08-09T15:06:16.738Z,20.53
2018-08-09T15:08:45.975Z,24.13
2018-08-09T15:11:15.264Z,19.10
2018-08-09T15:13:44.591Z,22.43
2018-08-09T15:16:13.554Z,18.53
2018-08-09T15:18:42.566Z,19.37
2018-08-09T15:21:11.860Z,18.90
2018-08-09T15:23:40.810Z,19.97
2018-08-09T15:26:09.671Z,19.27
2018-08-09T15:28:38.563Z,21.87
2018-08-09T15:31:07.494Z,20.30
2018-08-09T15:33:36.487Z,20.67
2018-08-09T15:36:05.950Z,19.10
2018-08-09T15:38:34.989Z,17.73
2018-08-09T15:41:03.987Z,19.43
2018-08-09T15:43:33.203Z,19.30
2018-08-09T15:46:02.150Z,21.53
2018-08-09T15:48:31.016Z,20.83
2018-08-09T15:51:00.256Z,19.60
2018-08-09T15:53:29.443Z,19.80
2018-08-09T15:55:58.367Z,20.50
2018-08-09T15:58:27.943Z,17.97
2018-08-09T16:00:57.182Z,19.97
2018-08-09T16:03:26.423Z,20.17
2018-08-09T16:05:55.606Z,19.77
2018-08-09T16:08:24.850Z,19.27
2018-08-09T16:10:54.144Z,19.47
2018-08-09T16:13:23.175Z,19.87
2018-08-09T16:15:52.264Z,19.37
2018-08-09T16:18:21.211Z,20.57
2018-08-09T16:20:50.131Z,18.80
2018-08-09T16:23:19.025Z,19.03
2018-08-09T16:25:47.967Z,20.73
2018-08-09T16:28:16.871Z,18.67
2018-08-09T16:30:45.831Z,21.10
2018-08-09T16:33:15.860Z,20.90
2018-08-09T16:35:45.019Z,20.50
2018-08-09T16:38:13.934Z,19.47
2018-08-09T16:40:42.860Z,21.53
2018-08-09T16:43:11.917Z,19.50
2018-08-09T16:45:40.828Z,19.07
2018-08-09T16:48:09.742Z,22.30
2018-08-09T16:50:38.638Z,20.20
2018-08-09T16:53:07.715Z,20.30
2018-08-09T16:55:36.722Z,20.77
2018-08-09T16:58:05.619Z,20.67
2018-08-09T17:00:34.785Z,19.43
2018-08-09T17:03:03.888Z,19.73
2018-08-09T17:05:32.873Z,20.57
2018-08-09T17:08:01.902Z,20.10
2018-08-09T17:10:30.831Z,20.53
2018-08-09T17:13:00.134Z,20.30
2018-08-09T17:15:29.355Z,21.73
2018-08-09T17:17:59.011Z,20.20
2018-08-09T17:20:30.183Z,20.73
2018-08-09T17:23:00.527Z,23.00
2018-08-09T17:25:29.499Z,21.30
2018-08-09T17:27:58.433Z,21.20
2018-08-09T17:30:28.278Z,22.27
2018-08-09T17:32:57.952Z,22.37
2018-08-09T17:35:26.966Z,22.13
2018-08-09T17:37:56.044Z,23.20
2018-08-09T17:40:28.108Z,22.90
2018-08-09T17:42:57.780Z,22.67
2018-08-09T17:45:29.942Z,23.37
2018-08-09T17:47:59.610Z,23.87
2018-08-09T17:50:28.600Z,23.47
2018-08-09T17:52:59.962Z,23.87
2018-08-09T17:55:29.395Z,22.83
2018-08-09T17:57:58.407Z,24.20
2018-08-09T18:00:29.534Z,22.77
2018-08-09T18:02:58.610Z,24.70
2018-08-09T18:05:27.571Z,23.97
2018-08-09T18:07:57.640Z,24.90
2018-08-09T18:10:30.267Z,26.27
2018-08-09T18:12:59.265Z,27.67
2018-08-09T18:15:29.156Z,27.00
2018-08-09T18:17:58.747Z,28.93
2018-08-09T18:20:31.279Z,25.17
2018-08-09T18:23:00.476Z,28.63
2018-08-09T18:25:29.404Z,29.90
2018-08-09T18:27:58.514Z,28.80
2018-08-09T18:30:27.503Z,29.67
2018-08-09T18:32:56.659Z,27.67
2018-08-09T18:35:25.596Z,30.63
2018-08-09T18:37:54.535Z,30.33
2018-08-09T18:40:25.596Z,31.83
2018-08-09T18:42:54.629Z,30.17
2018-08-09T18:45:23.922Z,32.70
2018-08-09T18:47:52.948Z,29.33
2018-08-09T18:50:24.794Z,31.50
2018-08-09T18:52:54.763Z,32.30
2018-08-09T18:55:23.676Z,31.33
2018-08-09T18:57:53.221Z,31.53
2018-08-09T19:00:27.399Z,31.27
2018-08-09T19:02:57.178Z,32.37
2018-08-09T19:05:26.509Z,34.63
2018-08-09T19:07:55.647Z,32.40
2018-08-09T19:10:28.480Z,33.93
2018-08-09T19:12:57.492Z,33.53
2018-08-09T19:16:06.091Z,33.90
2018-08-09T19:18:35.155Z,35.97
2018-08-09T19:21:04.190Z,33.37
2018-08-09T19:23:33.211Z,36.13
2018-08-09T19:26:02.159Z,36.43
2018-08-09T19:28:31.072Z,32.93
2018-08-09T19:30:59.997Z,36.30
2018-08-09T19:33:29.016Z,35.67
2018-08-09T19:35:57.935Z,35.97
2018-08-09T19:38:26.868Z,35.80
2018-08-09T19:40:55.911Z,37.30
2018-08-09T19:43:25.949Z,37.33
2018-08-09T19:45:54.862Z,35.60
2018-08-09T19:48:23.859Z,36.50
2018-08-09T19:50:52.784Z,35.73
2018-08-09T19:53:21.747Z,36.87
2018-08-09T19:55:50.660Z,36.13
2018-08-09T19:58:19.617Z,39.03
2018-08-09T20:00:48.504Z,37.57
2018-08-09T20:03:21.744Z,35.77
2018-08-09T20:05:50.663Z,37.43
2018-08-09T20:08:19.559Z,36.97
2018-08-09T20:10:48.434Z,34.80
2018-08-09T20:13:17.455Z,38.83
2018-08-09T20:15:46.392Z,38.37
2018-08-09T20:18:15.303Z,39.30
2018-08-09T20:20:44.278Z,39.40
2018-08-09T20:23:13.294Z,39.30
2018-08-09T20:25:42.236Z,38.17
2018-08-09T20:28:11.171Z,38.30
2018-08-09T20:30:40.163Z,39.67
2018-08-09T20:33:09.115Z,39.27
2018-08-09T20:35:38.066Z,37.67
2018-08-09T20:38:06.995Z,40.97
2018-08-09T20:40:35.953Z,39.63
2018-08-09T20:43:05.462Z,40.03
2018-08-09T20:45:34.412Z,40.40
2018-08-09T20:48:03.496Z,39.50
2018-08-09T20:50:32.414Z,42.20
2018-08-09T20:53:01.409Z,40.80
2018-08-09T20:55:30.281Z,40.87
2018-08-09T20:57:59.264Z,39.33
2018-08-09T21:00:29.974Z,39.93
2018-08-09T21:03:01.200Z,41.30
2018-08-09T21:05:31.959Z,41.77
2018-08-09T21:08:00.951Z,42.77
2018-08-09T21:10:30.162Z,41.60
2018-08-09T21:12:59.243Z,44.03
2018-08-09T21:15:28.234Z,41.27
2018-08-09T21:17:57.536Z,40.07
2018-08-09T21:20:26.490Z,44.20
2018-08-09T21:22:55.507Z,43.10
2018-08-09T21:25:24.414Z,43.67
2018-08-09T21:27:53.252Z,45.07
2018-08-09T21:30:22.811Z,43.17
2018-08-09T21:32:52.175Z,43.30
2018-08-09T21:35:21.071Z,42.70
2018-08-09T21:37:50.050Z,43.30
2018-08-09T21:40:18.935Z,42.20
2018-08-09T21:42:47.927Z,44.03
2018-08-09T21:45:18.067Z,44.20
2018-08-09T21:47:47.047Z,44.27
2018-08-09T21:50:17.704Z,43.17
2018-08-09T21:52:46.702Z,43.10
2018-08-09T21:55:15.670Z,41.80
2018-08-09T21:57:45.383Z,43.10
2018-08-09T22:00:53.912Z,43.83
2018-08-09T22:03:25.381Z,45.03
2018-08-09T22:06:00.035Z,44.93
2018-08-09T22:08:34.640Z,43.90
2018-08-09T22:11:09.775Z,40.33
2018-08-09T22:13:44.479Z,43.13
2018-08-09T22:16:19.083Z,45.03
2018-08-09T22:18:53.583Z,42.03
2018-08-09T22:21:28.128Z,40.00
2018-08-09T22:23:57.176Z,42.10
2018-08-09T22:26:26.189Z,45.97
2018-08-09T22:28:55.106Z,45.30
2018-08-09T22:31:24.014Z,44.03
2018-08-09T22:33:53.235Z,42.93
2018-08-09T22:36:22.239Z,44.60
2018-08-09T22:38:51.128Z,45.27
2018-08-09T22:41:20.055Z,44.23
2018-08-09T22:43:49.031Z,45.37
2018-08-09T22:46:17.967Z,43.77
2018-08-09T22:48:46.875Z,43.97
2018-08-09T22:51:15.835Z,45.07
2018-08-09T22:53:44.745Z,43.87
2018-08-09T22:56:13.678Z,43.13
2018-08-09T22:58:42.579Z,45.57
2018-08-09T23:01:11.583Z,46.43
2018-08-09T23:03:40.612Z,45.03
2018-08-09T23:06:09.708Z,44.13
2018-08-09T23:08:38.639Z,43.60
2018-08-09T23:11:07.960Z,44.70
2018-08-09T23:13:37.007Z,44.30
2018-08-09T23:16:06.433Z,43.63
2018-08-09T23:18:35.319Z,45.70
2018-08-09T23:21:04.271Z,43.73
2018-08-09T23:23:33.268Z,47.63
2018-08-09T23:26:02.223Z,45.40
2018-08-09T23:28:31.206Z,45.43
2018-08-09T23:31:00.093Z,46.17
2018-08-09T23:33:29.091Z,45.50
2018-08-09T23:35:57.987Z,47.57
2018-08-09T23:38:27.078Z,43.97
2018-08-09T23:40:55.926Z,45.73
2018-08-09T23:43:24.927Z,45.90
2018-08-09T23:45:53.759Z,45.47
2018-08-09T23:48:22.674Z,46.40
2018-08-09T23:50:51.576Z,46.00
2018-08-09T23:53:20.503Z,47.50
2018-08-09T23:55:49.343Z,45.90
2018-08-09T23:58:18.271Z,44.17
